Big Falls, Wisconsin
Current Conditions -  °F | °C
As of 10:35 PM on Friday 24 Oct 2014 (Local Time) from KCLI Reporting Station
Scattered Clouds Scattered Clouds  
Wind Chill: 50°   Ceiling: Unl
Heat Index: 50°   Visibility: 7mi
Dew Point: 48°   Wind: 6mph
Humidity: 94%   Direction: 200°SSW
Pressure: 29.84"   Gusts: NA
Location:  44.62°N, 89.02°W
Report Text: KCLI 250335Z AUTO 20005KT 7SM SCT019 10/09 A2984 RMK AO2
Loading
Personal Weather Stations






























Interactive Weather Map
Tropical Storm Tracking
New forecast layout! Learn more

10-Day Weather Forecast

Advertisements
Track Severe Weather on mobile